sensor_id;sensor_type;location;lat;lon;timestamp;pressure;altitude;pressure_sealevel;temperature;humidity
77587;BME280;66744;49.716;17.158;2024-02-21T00:01:21;99920.25;;;7.16;70.95
77587;BME280;66744;49.716;17.158;2024-02-21T00:04:22;99910.50;;;7.08;71.89
77587;BME280;66744;49.716;17.158;2024-02-21T00:07:26;99913.63;;;7.07;72.09
77587;BME280;66744;49.716;17.158;2024-02-21T00:10:28;99912.84;;;7.03;71.80
77587;BME280;66744;49.716;17.158;2024-02-21T00:13:32;99917.13;;;7.07;71.33
77587;BME280;66744;49.716;17.158;2024-02-21T00:16:35;99912.06;;;7.06;72.05
77587;BME280;66744;49.716;17.158;2024-02-21T00:19:37;99916.34;;;7.10;71.86
77587;BME280;66744;49.716;17.158;2024-02-21T00:22:38;99902.31;;;7.01;72.33
77587;BME280;66744;49.716;17.158;2024-02-21T00:25:41;99905.03;;;6.94;71.49
77587;BME280;66744;49.716;17.158;2024-02-21T00:28:43;99910.88;;;6.82;72.12
77587;BME280;66744;49.716;17.158;2024-02-21T00:31:46;99907.75;;;6.77;72.38
77587;BME280;66744;49.716;17.158;2024-02-21T00:34:49;99898.75;;;6.69;73.52
77587;BME280;66744;49.716;17.158;2024-02-21T00:37:51;99905.00;;;6.66;72.84
77587;BME280;66744;49.716;17.158;2024-02-21T00:40:53;99897.19;;;6.64;72.51
77587;BME280;66744;49.716;17.158;2024-02-21T00:43:56;99897.59;;;6.66;73.46
77587;BME280;66744;49.716;17.158;2024-02-21T00:46:59;99894.09;;;6.73;72.95
77587;BME280;66744;49.716;17.158;2024-02-21T00:50:02;99895.63;;;6.74;73.79
77587;BME280;66744;49.716;17.158;2024-02-21T00:53:05;99897.63;;;6.84;72.18
77587;BME280;66744;49.716;17.158;2024-02-21T00:56:06;99894.09;;;6.77;72.50
77587;BME280;66744;49.716;17.158;2024-02-21T00:59:08;99895.66;;;6.70;74.18
77587;BME280;66744;49.716;17.158;2024-02-21T01:02:12;99880.44;;;6.77;73.93
77587;BME280;66744;49.716;17.158;2024-02-21T01:05:13;99887.09;;;6.83;72.22
77587;BME280;66744;49.716;17.158;2024-02-21T01:08:17;99882.41;;;6.76;73.54
77587;BME280;66744;49.716;17.158;2024-02-21T01:11:19;99883.19;;;6.77;73.13
77587;BME280;66744;49.716;17.158;2024-02-21T01:14:22;99879.28;;;6.85;73.52
77587;BME280;66744;49.716;17.158;2024-02-21T01:17:24;99881.25;;;6.95;72.16
77587;BME280;66744;49.716;17.158;2024-02-21T01:20:29;99885.91;;;6.98;73.34
77587;BME280;66744;49.716;17.158;2024-02-21T01:23:30;99874.22;;;6.97;73.06
77587;BME280;66744;49.716;17.158;2024-02-21T01:26:33;99870.69;;;6.93;74.00
77587;BME280;66744;49.716;17.158;2024-02-21T01:29:35;99858.63;;;6.94;73.33
77587;BME280;66744;49.716;17.158;2024-02-21T01:32:36;99872.66;;;7.00;73.50
77587;BME280;66744;49.716;17.158;2024-02-21T01:35:38;99868.75;;;6.94;72.72
77587;BME280;66744;49.716;17.158;2024-02-21T01:38:42;99861.72;;;6.96;72.93
77587;BME280;66744;49.716;17.158;2024-02-21T01:41:44;99853.13;;;7.01;72.60
77587;BME280;66744;49.716;17.158;2024-02-21T01:44:46;99858.22;;;7.06;73.63
77587;BME280;66744;49.716;17.158;2024-02-21T01:47:52;99854.31;;;7.04;73.44
77587;BME280;66744;49.716;17.158;2024-02-21T01:50:58;99850.81;;;7.03;73.44
77587;BME280;66744;49.716;17.158;2024-02-21T01:54:00;99850.03;;;7.06;72.38
77587;BME280;66744;49.716;17.158;2024-02-21T01:57:05;99838.28;;;7.13;72.99
77587;BME280;66744;49.716;17.158;2024-02-21T02:04:42;99825.78;;;7.19;72.70
77587;BME280;66744;49.716;17.158;2024-02-21T02:07:45;99822.31;;;7.15;73.12
77587;BME280;66744;49.716;17.158;2024-02-21T02:10:46;99827.38;;;7.13;73.20
77587;BME280;66744;49.716;17.158;2024-02-21T02:13:47;99825.41;;;7.10;72.82
77587;BME280;66744;49.716;17.158;2024-02-21T02:16:49;99827.75;;;7.01;73.80
77587;BME280;66744;49.716;17.158;2024-02-21T02:19:50;99816.47;;;6.85;75.19
77587;BME280;66744;49.716;17.158;2024-02-21T02:22:55;99821.53;;;6.68;74.64
77587;BME280;66744;49.716;17.158;2024-02-21T02:25:57;99810.59;;;6.54;76.71
77587;BME280;66744;49.716;17.158;2024-02-21T02:29:04;99807.88;;;6.58;75.89
77587;BME280;66744;49.716;17.158;2024-02-21T02:32:05;99807.88;;;6.68;75.90
77587;BME280;66744;49.716;17.158;2024-02-21T02:35:11;99807.50;;;6.74;75.99
77587;BME280;66744;49.716;17.158;2024-02-21T02:38:12;99807.91;;;6.83;75.65
77587;BME280;66744;49.716;17.158;2024-02-21T02:41:16;99803.59;;;6.85;75.22
77587;BME280;66744;49.716;17.158;2024-02-21T02:44:19;99802.81;;;6.88;74.66
77587;BME280;66744;49.716;17.158;2024-02-21T02:47:21;99797.72;;;6.90;75.30
77587;BME280;66744;49.716;17.158;2024-02-21T02:50:24;99795.41;;;6.89;75.49
77587;BME280;66744;49.716;17.158;2024-02-21T02:53:28;99793.06;;;6.84;75.02
77587;BME280;66744;49.716;17.158;2024-02-21T02:56:32;99791.09;;;6.81;74.64
77587;BME280;66744;49.716;17.158;2024-02-21T02:59:35;99790.72;;;6.79;75.13
77587;BME280;66744;49.716;17.158;2024-02-21T03:02:39;99787.22;;;6.78;76.63
77587;BME280;66744;49.716;17.158;2024-02-21T03:05:46;99780.19;;;6.74;76.08
77587;BME280;66744;49.716;17.158;2024-02-21T03:08:49;99775.09;;;6.68;75.59
77587;BME280;66744;49.716;17.158;2024-02-21T03:11:54;99782.53;;;6.71;75.85
77587;BME280;66744;49.716;17.158;2024-02-21T03:15:03;99776.69;;;6.66;76.79
77587;BME280;66744;49.716;17.158;2024-02-21T03:18:12;99775.13;;;6.65;75.02
77587;BME280;66744;49.716;17.158;2024-02-21T03:21:17;99779.41;;;6.69;75.12
77587;BME280;66744;49.716;17.158;2024-02-21T03:24:19;99773.97;;;6.77;76.07
77587;BME280;66744;49.716;17.158;2024-02-21T03:27:20;99770.81;;;6.82;74.87
77587;BME280;66744;49.716;17.158;2024-02-21T03:30:25;99771.59;;;6.79;74.56
77587;BME280;66744;49.716;17.158;2024-02-21T03:33:27;99768.09;;;6.75;76.09
77587;BME280;66744;49.716;17.158;2024-02-21T03:36:31;99762.25;;;6.80;74.96
77587;BME280;66744;49.716;17.158;2024-02-21T03:39:33;99768.88;;;6.75;76.01
77587;BME280;66744;49.716;17.158;2024-02-21T03:42:40;99770.44;;;6.72;76.15
77587;BME280;66744;49.716;17.158;2024-02-21T03:45:44;99768.50;;;6.77;75.23
77587;BME280;66744;49.716;17.158;2024-02-21T03:48:50;99760.69;;;6.75;75.12
77587;BME280;66744;49.716;17.158;2024-02-21T03:51:52;99766.16;;;6.82;74.35
77587;BME280;66744;49.716;17.158;2024-02-21T03:54:59;99771.59;;;6.89;74.16
77587;BME280;66744;49.716;17.158;2024-02-21T03:58:04;99771.22;;;6.87;75.14
77587;BME280;66744;49.716;17.158;2024-02-21T04:01:10;99782.50;;;6.89;74.23
77587;BME280;66744;49.716;17.158;2024-02-21T04:04:14;99770.81;;;6.96;74.08
77587;BME280;66744;49.716;17.158;2024-02-21T04:07:15;99767.28;;;6.99;73.24
77587;BME280;66744;49.716;17.158;2024-02-21T04:10:17;99767.69;;;6.97;73.92
77587;BME280;66744;49.716;17.158;2024-02-21T04:13:22;99769.66;;;7.00;73.90
77587;BME280;66744;49.716;17.158;2024-02-21T04:16:24;99769.25;;;7.02;74.43
77587;BME280;66744;49.716;17.158;2024-02-21T04:19:29;99764.56;;;6.95;73.71
77587;BME280;66744;49.716;17.158;2024-02-21T04:22:35;99756.78;;;6.87;74.31
77587;BME280;66744;49.716;17.158;2024-02-21T04:25:38;99748.19;;;6.74;75.68
77587;BME280;66744;49.716;17.158;2024-02-21T04:28:39;99750.53;;;6.76;74.94
77587;BME280;66744;49.716;17.158;2024-02-21T04:31:44;99757.56;;;6.84;75.16
77587;BME280;66744;49.716;17.158;2024-02-21T04:34:48;99744.28;;;6.89;74.70
77587;BME280;66744;49.716;17.158;2024-02-21T04:37:55;99749.75;;;6.86;75.64
77587;BME280;66744;49.716;17.158;2024-02-21T04:40:59;99746.63;;;6.80;75.85
77587;BME280;66744;49.716;17.158;2024-02-21T04:44:03;99747.81;;;6.79;75.80
77587;BME280;66744;49.716;17.158;2024-02-21T04:47:05;99745.50;;;6.70;75.38
77587;BME280;66744;49.716;17.158;2024-02-21T04:50:07;99739.22;;;6.63;75.08
77587;BME280;66744;49.716;17.158;2024-02-21T04:53:11;99745.47;;;6.60;75.04
77587;BME280;66744;49.716;17.158;2024-02-21T04:56:14;99740.78;;;6.57;75.88
77587;BME280;66744;49.716;17.158;2024-02-21T04:59:16;99736.50;;;6.63;75.10
77587;BME280;66744;49.716;17.158;2024-02-21T05:02:19;99739.25;;;6.66;76.32
77587;BME280;66744;49.716;17.158;2024-02-21T05:05:24;99733.00;;;6.62;76.14
77587;BME280;66744;49.716;17.158;2024-02-21T05:08:26;99735.75;;;6.55;76.43
77587;BME280;66744;49.716;17.158;2024-02-21T05:11:32;99734.94;;;6.48;77.47
77587;BME280;66744;49.716;17.158;2024-02-21T05:14:36;99726.00;;;6.40;77.38
77587;BME280;66744;49.716;17.158;2024-02-21T05:17:39;99727.94;;;6.43;76.84
77587;BME280;66744;49.716;17.158;2024-02-21T05:20:41;99740.03;;;6.49;77.33
77587;BME280;66744;49.716;17.158;2024-02-21T05:23:46;99723.25;;;6.51;77.08
77587;BME280;66744;49.716;17.158;2024-02-21T05:26:51;99718.19;;;6.49;76.99
77587;BME280;66744;49.716;17.158;2024-02-21T05:29:56;99723.66;;;6.42;76.40
77587;BME280;66744;49.716;17.158;2024-02-21T05:33:06;99722.84;;;6.42;76.39
77587;BME280;66744;49.716;17.158;2024-02-21T05:36:09;99712.34;;;6.40;76.08
77587;BME280;66744;49.716;17.158;2024-02-21T05:39:15;99721.69;;;6.39;75.41
77587;BME280;66744;49.716;17.158;2024-02-21T05:42:18;99715.06;;;6.40;75.35
77587;BME280;66744;49.716;17.158;2024-02-21T05:45:19;99724.81;;;6.38;76.55
77587;BME280;66744;49.716;17.158;2024-02-21T05:48:23;99713.91;;;6.34;76.99
77587;BME280;66744;49.716;17.158;2024-02-21T05:51:27;99717.03;;;6.29;77.19
77587;BME280;66744;49.716;17.158;2024-02-21T05:54:30;99718.97;;;6.25;76.25
77587;BME280;66744;49.716;17.158;2024-02-21T05:57:36;99715.84;;;6.20;78.02
77587;BME280;66744;49.716;17.158;2024-02-21T06:00:39;99715.84;;;6.16;77.71
77587;BME280;66744;49.716;17.158;2024-02-21T06:03:43;99713.09;;;6.16;77.11
77587;BME280;66744;49.716;17.158;2024-02-21T06:06:45;99718.97;;;6.22;76.71
77587;BME280;66744;49.716;17.158;2024-02-21T06:09:48;99713.50;;;6.22;77.16
77587;BME280;66744;49.716;17.158;2024-02-21T06:12:49;99715.84;;;6.23;76.57
77587;BME280;66744;49.716;17.158;2024-02-21T06:15:52;99723.25;;;6.26;77.10
77587;BME280;66744;49.716;17.158;2024-02-21T06:18:54;99726.75;;;6.30;76.49
77587;BME280;66744;49.716;17.158;2024-02-21T06:21:56;99723.66;;;6.35;77.56
77587;BME280;66744;49.716;17.158;2024-02-21T06:24:58;99731.06;;;6.45;76.44
77587;BME280;66744;49.716;17.158;2024-02-21T06:27:59;99729.50;;;6.51;76.60
77587;BME280;66744;49.716;17.158;2024-02-21T06:31:01;99726.78;;;6.58;76.71
77587;BME280;66744;49.716;17.158;2024-02-21T06:34:10;99733.00;;;6.62;76.35
77587;BME280;66744;49.716;17.158;2024-02-21T06:37:12;99736.50;;;6.63;76.46
77587;BME280;66744;49.716;17.158;2024-02-21T06:40:20;99733.38;;;6.71;75.87
77587;BME280;66744;49.716;17.158;2024-02-21T06:43:21;99725.56;;;6.81;76.14
77587;BME280;66744;49.716;17.158;2024-02-21T06:46:27;99733.38;;;6.79;75.49
77587;BME280;66744;49.716;17.158;2024-02-21T06:49:34;99716.25;;;6.67;75.17
77587;BME280;66744;49.716;17.158;2024-02-21T06:52:41;99719.38;;;6.55;77.12
77587;BME280;66744;49.716;17.158;2024-02-21T06:55:43;99724.81;;;6.48;77.10
77587;BME280;66744;49.716;17.158;2024-02-21T06:58:45;99728.31;;;6.45;77.93
77587;BME280;66744;49.716;17.158;2024-02-21T07:01:48;99717.78;;;6.58;77.81
77587;BME280;66744;49.716;17.158;2024-02-21T07:04:51;99716.63;;;6.73;77.58
77587;BME280;66744;49.716;17.158;2024-02-21T07:07:54;99716.59;;;6.80;76.74
77587;BME280;66744;49.716;17.158;2024-02-21T07:10:57;99727.13;;;6.82;76.06
77587;BME280;66744;49.716;17.158;2024-02-21T07:13:59;99718.53;;;6.87;75.92
77587;BME280;66744;49.716;17.158;2024-02-21T07:17:03;99712.66;;;6.95;75.85
77587;BME280;66744;49.716;17.158;2024-02-21T07:20:07;99723.53;;;7.13;75.37
77587;BME280;66744;49.716;17.158;2024-02-21T07:23:09;99720.38;;;7.25;75.56
77587;BME280;66744;49.716;17.158;2024-02-21T07:26:12;99716.13;;;7.20;74.39
77587;BME280;66744;49.716;17.158;2024-02-21T07:29:14;99714.97;;;7.21;74.82
77587;BME280;66744;49.716;17.158;2024-02-21T07:32:18;99712.97;;;7.25;74.62
77587;BME280;66744;49.716;17.158;2024-02-21T07:35:22;99701.97;;;7.43;74.02
77587;BME280;66744;49.716;17.158;2024-02-21T07:38:23;99708.91;;;7.62;73.59
77587;BME280;66744;49.716;17.158;2024-02-21T07:41:27;99687.03;;;7.69;72.91
77587;BME280;66744;49.716;17.158;2024-02-21T07:44:33;99696.28;;;7.86;72.92
77587;BME280;66744;49.716;17.158;2024-02-21T07:47:38;99695.06;;;7.90;73.10
77587;BME280;66744;49.716;17.158;2024-02-21T07:50:39;99685.72;;;7.88;72.37
77587;BME280;66744;49.716;17.158;2024-02-21T07:53:44;99676.22;;;8.03;72.74
77587;BME280;66744;49.716;17.158;2024-02-21T07:56:48;99686.25;;;8.23;71.53
77587;BME280;66744;49.716;17.158;2024-02-21T07:59:50;99673.97;;;8.49;71.15
77587;BME280;66744;49.716;17.158;2024-02-21T08:02:52;99673.72;;;8.70;69.89
77587;BME280;66744;49.716;17.158;2024-02-21T08:05:54;99674.34;;;8.88;68.64
77587;BME280;66744;49.716;17.158;2024-02-21T08:08:58;99671.94;;;9.28;68.75
77587;BME280;66744;49.716;17.158;2024-02-21T08:12:04;99662.81;;;9.38;68.12
77587;BME280;66744;49.716;17.158;2024-02-21T08:15:05;99668.25;;;9.68;67.65
77587;BME280;66744;49.716;17.158;2024-02-21T08:18:11;99660.66;;;10.06;67.19
77587;BME280;66744;49.716;17.158;2024-02-21T08:21:18;99656.09;;;10.46;64.51
77587;BME280;66744;49.716;17.158;2024-02-21T08:24:22;99654.88;;;10.70;62.96
77587;BME280;66744;49.716;17.158;2024-02-21T08:27:23;99642.97;;;10.57;62.75
77587;BME280;66744;49.716;17.158;2024-02-21T08:30:26;99647.88;;;10.89;62.52
77587;BME280;66744;49.716;17.158;2024-02-21T08:33:28;99646.75;;;11.06;61.35
77587;BME280;66744;49.716;17.158;2024-02-21T08:36:36;99641.47;;;10.95;62.15
77587;BME280;66744;49.716;17.158;2024-02-21T08:39:39;99640.13;;;10.84;61.88
77587;BME280;66744;49.716;17.158;2024-02-21T08:42:41;99641.81;;;10.78;61.97
77587;BME280;66744;49.716;17.158;2024-02-21T08:45:46;99644.75;;;10.67;61.42
77587;BME280;66744;49.716;17.158;2024-02-21T08:48:51;99642.84;;;10.41;61.39
77587;BME280;66744;49.716;17.158;2024-02-21T08:51:54;99648.66;;;10.23;62.71
77587;BME280;66744;49.716;17.158;2024-02-21T08:54:57;99649.69;;;10.06;63.23
77587;BME280;66744;49.716;17.158;2024-02-21T08:58:01;99651.66;;;10.05;63.16
77587;BME280;66744;49.716;17.158;2024-02-21T09:01:08;99647.50;;;9.94;63.97
77587;BME280;66744;49.716;17.158;2024-02-21T09:04:16;99647.66;;;9.83;63.47
77587;BME280;66744;49.716;17.158;2024-02-21T09:07:19;99647.78;;;9.76;64.36
77587;BME280;66744;49.716;17.158;2024-02-21T09:10:21;99642.28;;;9.76;65.30
77587;BME280;66744;49.716;17.158;2024-02-21T09:13:22;99643.72;;;9.84;65.66
77587;BME280;66744;49.716;17.158;2024-02-21T09:16:27;99648.13;;;9.78;67.56
77587;BME280;66744;49.716;17.158;2024-02-21T09:19:30;99641.38;;;9.83;65.84
77587;BME280;66744;49.716;17.158;2024-02-21T09:22:32;99641.38;;;9.83;66.66
77587;BME280;66744;49.716;17.158;2024-02-21T09:25:37;99633.38;;;9.69;67.20
77587;BME280;66744;49.716;17.158;2024-02-21T09:28:39;99642.84;;;9.64;67.76
77587;BME280;66744;49.716;17.158;2024-02-21T09:31:42;99648.69;;;9.66;68.68
77587;BME280;66744;49.716;17.158;2024-02-21T09:34:45;99646.78;;;9.63;68.99
77587;BME280;66744;49.716;17.158;2024-02-21T09:37:47;99646.97;;;9.49;69.76
77587;BME280;66744;49.716;17.158;2024-02-21T09:41:14;99642.84;;;9.64;69.57
77587;BME280;66744;49.716;17.158;2024-02-21T09:44:20;99644.91;;;9.83;67.13
77587;BME280;66744;49.716;17.158;2024-02-21T09:47:40;99635.97;;;9.79;68.04
77587;BME280;66744;49.716;17.158;2024-02-21T09:50:45;99639.34;;;9.64;68.57
77587;BME280;66744;49.716;17.158;2024-02-21T09:53:48;99648.44;;;9.57;68.11
77587;BME280;66744;49.716;17.158;2024-02-21T09:56:56;99643.88;;;9.47;68.14
77587;BME280;66744;49.716;17.158;2024-02-21T09:59:58;99662.72;;;9.41;68.35
77587;BME280;66744;49.716;17.158;2024-02-21T10:03:00;99667.19;;;9.32;70.83
77587;BME280;66744;49.716;17.158;2024-02-21T10:06:04;99659.81;;;9.25;70.37
77587;BME280;66744;49.716;17.158;2024-02-21T10:09:23;99659.91;;;9.18;69.96
77587;BME280;66744;49.716;17.158;2024-02-21T10:12:33;99657.66;;;9.10;70.24
77587;BME280;66744;49.716;17.158;2024-02-21T10:15:35;99658.94;;;9.02;70.15
77587;BME280;66744;49.716;17.158;2024-02-21T10:18:38;99655.84;;;9.00;71.18
77587;BME280;66744;49.716;17.158;2024-02-21T10:21:44;99652.69;;;8.98;70.40
77587;BME280;66744;49.716;17.158;2024-02-21T10:24:47;99650.75;;;8.98;70.65
77587;BME280;66744;49.716;17.158;2024-02-21T10:27:48;99651.03;;;9.07;69.86
77587;BME280;66744;49.716;17.158;2024-02-21T10:30:52;99632.91;;;9.17;69.96
77587;BME280;66744;49.716;17.158;2024-02-21T10:33:58;99640.53;;;9.32;69.37
77587;BME280;66744;49.716;17.158;2024-02-21T10:37:09;99636.47;;;9.44;69.26
77587;BME280;66744;49.716;17.158;2024-02-21T10:40:11;99634.13;;;9.42;69.53
77587;BME280;66744;49.716;17.158;2024-02-21T10:43:18;99619.50;;;9.53;69.29
77587;BME280;66744;49.716;17.158;2024-02-21T10:46:22;99608.94;;;9.51;69.07
77587;BME280;66744;49.716;17.158;2024-02-21T10:49:26;99609.38;;;9.49;69.75
77587;BME280;66744;49.716;17.158;2024-02-21T10:56:21;99622.50;;;9.35;70.07
77587;BME280;66744;49.716;17.158;2024-02-21T10:59:28;99626.06;;;9.32;70.90
77587;BME280;66744;49.716;17.158;2024-02-21T11:02:33;99615.13;;;9.28;72.08
77587;BME280;66744;49.716;17.158;2024-02-21T11:05:36;99607.28;;;9.30;71.51
77587;BME280;66744;49.716;17.158;2024-02-21T11:08:38;99601.22;;;9.42;70.28
77587;BME280;66744;49.716;17.158;2024-02-21T11:11:45;99587.78;;;9.52;70.86
77587;BME280;66744;49.716;17.158;2024-02-21T11:14:48;99569.97;;;9.63;70.17
77587;BME280;66744;49.716;17.158;2024-02-21T11:17:56;99561.59;;;9.74;69.30
77587;BME280;66744;49.716;17.158;2024-02-21T11:20:57;99559.06;;;9.83;69.67
77587;BME280;66744;49.716;17.158;2024-02-21T11:24:02;99553.91;;;9.88;68.53
77587;BME280;66744;49.716;17.158;2024-02-21T11:27:08;99554.56;;;9.96;nan
77587;BME280;66744;49.716;17.158;2024-02-21T11:30:12;99549.84;;;9.96;68.55
77587;BME280;66744;49.716;17.158;2024-02-21T11:33:19;99551.03;;;9.95;68.78
77587;BME280;66744;49.716;17.158;2024-02-21T11:36:25;99547.50;;;9.95;68.89
77587;BME280;66744;49.716;17.158;2024-02-21T11:39:28;99542.38;;;9.97;69.00
77587;BME280;66744;49.716;17.158;2024-02-21T11:42:34;99538.09;;;9.96;68.86
77587;BME280;66744;49.716;17.158;2024-02-21T11:45:40;99536.06;;;10.00;69.32
77587;BME280;66744;49.716;17.158;2024-02-21T11:48:43;99527.94;;;9.93;68.76
77587;BME280;66744;49.716;17.158;2024-02-21T11:51:48;99524.84;;;9.91;68.82
77587;BME280;66744;49.716;17.158;2024-02-21T11:54:51;99533.19;;;10.07;69.59
77587;BME280;66744;49.716;17.158;2024-02-21T11:57:58;99523.31;;;10.10;69.54
77587;BME280;66744;49.716;17.158;2024-02-21T12:01:02;99524.47;;;10.12;69.09
77587;BME280;66744;49.716;17.158;2024-02-21T12:04:06;99523.25;;;10.17;69.72
77587;BME280;66744;49.716;17.158;2024-02-21T12:07:08;99513.81;;;10.18;69.18
77587;BME280;66744;49.716;17.158;2024-02-21T12:10:10;99505.03;;;10.26;68.74
77587;BME280;66744;49.716;17.158;2024-02-21T12:13:12;99500.53;;;10.36;67.55
77587;BME280;66744;49.716;17.158;2024-02-21T12:16:16;99501.03;;;10.50;67.97
77587;BME280;66744;49.716;17.158;2024-02-21T12:19:20;99498.31;;;10.67;65.58
77587;BME280;66744;49.716;17.158;2024-02-21T12:22:25;99494.25;;;10.55;65.04
77587;BME280;66744;49.716;17.158;2024-02-21T12:25:29;99497.44;;;10.53;66.93
77587;BME280;66744;49.716;17.158;2024-02-21T12:28:30;99492.63;;;10.57;66.64
77587;BME280;66744;49.716;17.158;2024-02-21T12:31:32;99489.53;;;10.55;67.01
77587;BME280;66744;49.716;17.158;2024-02-21T12:34:40;99480.03;;;10.40;66.68
77587;BME280;66744;49.716;17.158;2024-02-21T12:37:42;99483.84;;;10.46;65.35
77587;BME280;66744;49.716;17.158;2024-02-21T12:40:44;99468.97;;;10.44;66.72
77587;BME280;66744;49.716;17.158;2024-02-21T12:43:49;99468.13;;;10.47;65.37
77587;BME280;66744;49.716;17.158;2024-02-21T12:46:51;99470.53;;;10.45;66.64
77587;BME280;66744;49.716;17.158;2024-02-21T12:49:59;99470.31;;;10.55;65.00
77587;BME280;66744;49.716;17.158;2024-02-21T12:53:06;99464.72;;;10.39;66.19
77587;BME280;66744;49.716;17.158;2024-02-21T12:56:07;99467.91;;;10.38;65.79
77587;BME280;66744;49.716;17.158;2024-02-21T12:59:12;99457.00;;;10.34;66.60
77587;BME280;66744;49.716;17.158;2024-02-21T13:02:15;99453.13;;;10.32;65.41
77587;BME280;66744;49.716;17.158;2024-02-21T13:05:20;99449.75;;;10.24;66.60
77587;BME280;66744;49.716;17.158;2024-02-21T13:08:29;99444.47;;;10.14;66.53
77587;BME280;66744;49.716;17.158;2024-02-21T13:11:31;99443.78;;;10.29;65.17
77587;BME280;66744;49.716;17.158;2024-02-21T13:14:35;99426.84;;;10.31;66.32
77587;BME280;66744;49.716;17.158;2024-02-21T13:17:42;99421.03;;;10.29;64.21
77587;BME280;66744;49.716;17.158;2024-02-21T13:20:46;99419.41;;;10.31;65.54
77587;BME280;66744;49.716;17.158;2024-02-21T13:23:49;99413.84;;;10.35;64.59
77587;BME280;66744;49.716;17.158;2024-02-21T13:26:51;99416.34;;;10.45;63.72
77587;BME280;66744;49.716;17.158;2024-02-21T13:29:54;99410.66;;;10.36;64.80
77587;BME280;66744;49.716;17.158;2024-02-21T13:32:57;99407.44;;;10.41;63.45
77587;BME280;66744;49.716;17.158;2024-02-21T13:35:59;99409.88;;;10.55;64.73
77587;BME280;66744;49.716;17.158;2024-02-21T13:39:03;99421.69;;;10.52;63.46
77587;BME280;66744;49.716;17.158;2024-02-21T13:42:05;99412.69;;;10.52;64.38
77587;BME280;66744;49.716;17.158;2024-02-21T13:45:07;99404.94;;;10.47;63.74
77587;BME280;66744;49.716;17.158;2024-02-21T13:48:09;99400.25;;;10.47;64.21
77587;BME280;66744;49.716;17.158;2024-02-21T13:51:13;99389.38;;;10.40;63.74
77587;BME280;66744;49.716;17.158;2024-02-21T13:54:18;99389.66;;;10.46;65.16
77587;BME280;66744;49.716;17.158;2024-02-21T13:57:21;99377.81;;;10.49;65.20
77587;BME280;66744;49.716;17.158;2024-02-21T14:00:25;99383.06;;;10.43;64.24
77587;BME280;66744;49.716;17.158;2024-02-21T14:03:28;99379.19;;;10.41;63.39
77587;BME280;66744;49.716;17.158;2024-02-21T14:06:30;99374.31;;;10.48;63.14
77587;BME280;66744;49.716;17.158;2024-02-21T14:09:32;99363.25;;;10.52;63.67
77587;BME280;66744;49.716;17.158;2024-02-21T14:12:34;99360.34;;;10.59;63.06
77587;BME280;66744;49.716;17.158;2024-02-21T14:15:41;99358.88;;;10.54;63.59
77587;BME280;66744;49.716;17.158;2024-02-21T14:18:50;99360.66;;;10.45;62.47
77587;BME280;66744;49.716;17.158;2024-02-21T14:21:53;99363.63;;;10.34;63.26
77587;BME280;66744;49.716;17.158;2024-02-21T14:24:56;99357.25;;;10.21;64.12
77587;BME280;66744;49.716;17.158;2024-02-21T14:28:00;99363.88;;;10.24;64.50
77587;BME280;66744;49.716;17.158;2024-02-21T14:31:04;99364.28;;;10.22;63.25
77587;BME280;66744;49.716;17.158;2024-02-21T14:34:07;99360.28;;;10.27;64.16
77587;BME280;66744;49.716;17.158;2024-02-21T14:37:10;99344.41;;;10.34;62.94
77587;BME280;66744;49.716;17.158;2024-02-21T14:40:13;99343.34;;;10.28;64.21
77587;BME280;66744;49.716;17.158;2024-02-21T14:43:17;99346.28;;;10.21;64.25
77587;BME280;66744;49.716;17.158;2024-02-21T14:46:19;99345.56;;;10.17;63.91
77587;BME280;66744;49.716;17.158;2024-02-21T14:49:23;99334.13;;;10.19;65.12
77587;BME280;66744;49.716;17.158;2024-02-21T14:52:26;99332.78;;;10.07;65.25
77587;BME280;66744;49.716;17.158;2024-02-21T14:55:30;99324.66;;;10.03;65.43
77587;BME280;66744;49.716;17.158;2024-02-21T14:58:33;99315.97;;;10.05;65.43
77587;BME280;66744;49.716;17.158;2024-02-21T15:01:37;99315.28;;;10.01;66.26
77587;BME280;66744;49.716;17.158;2024-02-21T15:04:44;99314.88;;;10.02;65.98
77587;BME280;66744;49.716;17.158;2024-02-21T15:07:46;99307.47;;;9.99;65.86
77587;BME280;66744;49.716;17.158;2024-02-21T15:10:48;99304.09;;;9.92;66.29
77587;BME280;66744;49.716;17.158;2024-02-21T15:13:52;99310.94;;;10.03;66.04
77587;BME280;66744;49.716;17.158;2024-02-21T15:16:58;99307.41;;;10.03;66.09
77587;BME280;66744;49.716;17.158;2024-02-21T15:19:59;99304.47;;;9.94;65.51
77587;BME280;66744;49.716;17.158;2024-02-21T15:23:04;99294.75;;;9.89;66.06
77587;BME280;66744;49.716;17.158;2024-02-21T15:26:09;99298.13;;;9.77;65.67
77587;BME280;66744;49.716;17.158;2024-02-21T15:29:10;99297.00;;;9.75;66.59
77587;BME280;66744;49.716;17.158;2024-02-21T15:32:15;99311.28;;;9.66;66.24
77587;BME280;66744;49.716;17.158;2024-02-21T15:35:17;99303.50;;;9.65;66.68
77587;BME280;66744;49.716;17.158;2024-02-21T15:38:21;99305.72;;;9.70;66.60
77587;BME280;66744;49.716;17.158;2024-02-21T15:41:22;99300.38;;;9.63;68.70
77587;BME280;66744;49.716;17.158;2024-02-21T15:44:24;99301.88;;;9.67;68.39
77587;BME280;66744;49.716;17.158;2024-02-21T15:47:29;99287.09;;;9.61;69.55
77587;BME280;66744;49.716;17.158;2024-02-21T15:50:30;99288.22;;;9.44;69.54
77587;BME280;66744;49.716;17.158;2024-02-21T15:53:37;99291.81;;;9.41;69.87
77587;BME280;66744;49.716;17.158;2024-02-21T15:56:42;99293.00;;;9.40;70.96
77587;BME280;66744;49.716;17.158;2024-02-21T15:59:46;99284.47;;;9.34;70.83
77587;BME280;66744;49.716;17.158;2024-02-21T16:02:51;99274.00;;;9.29;70.73
77587;BME280;66744;49.716;17.158;2024-02-21T16:05:55;99260.41;;;9.22;70.87
77587;BME280;66744;49.716;17.158;2024-02-21T16:08:58;99267.97;;;9.15;71.26
77587;BME280;66744;49.716;17.158;2024-02-21T16:12:05;99270.38;;;9.13;72.13
77587;BME280;66744;49.716;17.158;2024-02-21T16:15:10;99270.88;;;9.08;71.27
77587;BME280;66744;49.716;17.158;2024-02-21T16:18:12;99266.22;;;9.05;71.89